createdAt,value
2024-02-29T00:00:10.151Z,60.97
2024-02-29T00:01:10.271Z,60.67
2024-02-29T00:02:10.138Z,60.67
2024-02-29T00:03:10.345Z,60.67
2024-02-29T00:04:10.242Z,60.90
2024-02-29T00:05:10.079Z,61.00
2024-02-29T00:06:10.104Z,61.21
2024-02-29T00:07:10.293Z,61.61
2024-02-29T00:08:10.064Z,61.72
2024-02-29T00:09:10.039Z,61.41
2024-02-29T00:10:10.517Z,61.61
2024-02-29T00:11:10.035Z,61.61
2024-02-29T00:12:10.011Z,61.61
2024-02-29T00:13:10.073Z,61.31
2024-02-29T00:14:10.006Z,61.51
2024-02-29T00:15:09.961Z,61.41
2024-02-29T00:16:10.017Z,61.21
2024-02-29T00:17:09.937Z,61.10
2024-02-29T00:18:09.996Z,61.00
2024-02-29T00:19:10.110Z,61.00
2024-02-29T00:20:09.928Z,61.00
2024-02-29T00:21:09.886Z,61.24
2024-02-29T00:22:09.895Z,61.34
2024-02-29T00:23:09.856Z,61.34
2024-02-29T00:24:09.830Z,61.44
2024-02-29T00:25:09.954Z,61.36
2024-02-29T00:26:09.816Z,61.67
2024-02-29T00:27:09.791Z,61.65
2024-02-29T00:28:09.905Z,61.34
2024-02-29T00:29:09.785Z,61.44
2024-02-29T00:30:09.767Z,61.67
2024-02-29T00:31:09.774Z,61.67
2024-02-29T00:32:09.731Z,61.98
2024-02-29T00:33:09.742Z,61.88
2024-02-29T00:34:09.793Z,61.67
2024-02-29T00:35:09.674Z,61.77
2024-02-29T00:36:10.469Z,61.67
2024-02-29T00:37:09.760Z,61.36
2024-02-29T00:38:09.667Z,61.47
2024-02-29T00:39:14.784Z,61.47
2024-02-29T00:40:10.819Z,61.26
2024-02-29T00:41:09.611Z,61.24
2024-02-29T00:42:09.602Z,61.26
2024-02-29T00:43:09.701Z,61.57
2024-02-29T00:44:09.582Z,61.57
2024-02-29T00:45:09.617Z,61.54
2024-02-29T00:46:09.608Z,61.44
2024-02-29T00:47:09.544Z,61.47
2024-02-29T00:48:09.551Z,61.57
2024-02-29T00:49:09.634Z,61.67
2024-02-29T00:50:09.538Z,61.67
2024-02-29T00:51:09.493Z,61.57
2024-02-29T00:52:09.833Z,61.47
2024-02-29T00:53:09.450Z,61.36
2024-02-29T00:54:09.440Z,61.57
2024-02-29T00:55:09.488Z,61.77
2024-02-29T00:56:09.408Z,62.11
2024-02-29T00:57:09.429Z,62.11
2024-02-29T00:58:09.438Z,62.21
2024-02-29T00:59:09.377Z,62.11
2024-02-29T01:00:09.361Z,62.01
2024-02-29T01:01:09.437Z,62.01
2024-02-29T01:02:09.360Z,62.11
2024-02-29T01:03:09.345Z,62.21
2024-02-29T01:04:09.358Z,62.11
2024-02-29T01:05:09.365Z,62.32
2024-02-29T01:06:09.323Z,62.21
2024-02-29T01:07:09.351Z,62.42
2024-02-29T01:08:09.249Z,62.73
2024-02-29T01:09:09.260Z,62.35
2024-02-29T01:10:09.317Z,62.76
2024-02-29T01:11:09.237Z,62.85
2024-02-29T01:12:09.241Z,62.96
2024-02-29T01:13:09.228Z,63.06
2024-02-29T01:14:09.193Z,63.06
2024-02-29T01:15:09.176Z,62.96
2024-02-29T01:16:09.256Z,62.96
2024-02-29T01:17:09.172Z,63.20
2024-02-29T01:18:09.193Z,63.09
2024-02-29T01:19:09.138Z,63.20
2024-02-29T01:20:09.119Z,63.09
2024-02-29T01:21:09.097Z,63.40
2024-02-29T01:22:09.111Z,63.50
2024-02-29T01:23:09.075Z,63.40
2024-02-29T01:24:09.077Z,63.50
2024-02-29T01:25:09.087Z,63.20
2024-02-29T01:26:09.020Z,63.09
2024-02-29T01:27:09.017Z,62.85
2024-02-29T01:28:09.079Z,62.76
2024-02-29T01:29:08.988Z,62.55
2024-02-29T01:30:08.993Z,62.45
2024-02-29T01:31:09.049Z,62.24
2024-02-29T01:32:18.348Z,61.91
2024-02-29T01:33:09.997Z,61.91
2024-02-29T01:34:08.925Z,61.91
2024-02-29T01:35:08.926Z,61.91
2024-02-29T01:36:08.932Z,61.91
2024-02-29T01:37:08.988Z,62.01
2024-02-29T01:38:08.858Z,61.91
2024-02-29T01:39:08.846Z,62.01
2024-02-29T01:40:08.968Z,62.24
2024-02-29T01:41:08.860Z,62.24
2024-02-29T01:42:08.829Z,62.24
2024-02-29T01:43:08.827Z,62.11
2024-02-29T01:44:08.793Z,62.01
2024-02-29T01:45:08.755Z,62.01
2024-02-29T01:46:08.779Z,62.04
2024-02-29T01:47:08.755Z,62.14
2024-02-29T01:48:08.836Z,61.93
2024-02-29T01:49:08.792Z,62.04
2024-02-29T01:50:08.690Z,62.27
2024-02-29T01:51:08.700Z,62.48
2024-02-29T01:52:08.771Z,62.68
2024-02-29T01:53:08.703Z,62.78
2024-02-29T01:54:08.684Z,62.58
2024-02-29T01:55:08.677Z,62.48
2024-02-29T01:56:08.626Z,62.37
2024-02-29T01:57:08.628Z,62.35
2024-02-29T01:58:10.403Z,62.24
2024-02-29T01:59:08.609Z,62.27
2024-02-29T02:00:08.586Z,62.27
2024-02-29T02:01:08.691Z,62.68
2024-02-29T02:02:08.534Z,62.48
2024-02-29T02:03:08.540Z,62.37
2024-02-29T02:04:08.637Z,62.48
2024-02-29T02:05:08.709Z,62.37
2024-02-29T02:06:08.533Z,62.58
2024-02-29T02:07:08.558Z,62.92
2024-02-29T02:08:08.594Z,62.71
2024-02-29T02:09:08.466Z,63.02
2024-02-29T02:10:09.246Z,62.81
2024-02-29T02:11:08.470Z,63.32
2024-02-29T02:12:08.439Z,63.12
2024-02-29T02:13:08.421Z,62.92
2024-02-29T02:14:08.382Z,63.43
2024-02-29T02:15:08.389Z,63.46
2024-02-29T02:16:08.400Z,63.79
2024-02-29T02:17:08.355Z,64.82
2024-02-29T02:18:08.423Z,64.51
2024-02-29T02:19:08.416Z,63.97
2024-02-29T02:20:08.399Z,63.87
2024-02-29T02:21:08.273Z,63.66
2024-02-29T02:22:08.341Z,63.76
2024-02-29T02:23:08.273Z,63.46
2024-02-29T02:24:08.267Z,63.56
2024-02-29T02:25:08.409Z,63.25
2024-02-29T02:26:08.208Z,63.76
2024-02-29T02:27:08.209Z,63.35
2024-02-29T02:28:08.293Z,63.56
2024-02-29T02:29:08.197Z,63.12
2024-02-29T02:30:08.341Z,62.71
2024-02-29T02:31:08.270Z,62.71
2024-02-29T02:32:08.154Z,62.40
2024-02-29T02:33:08.286Z,62.71
2024-02-29T02:34:08.145Z,62.92
2024-02-29T02:35:08.318Z,62.92
2024-02-29T02:36:08.180Z,62.81
2024-02-29T02:37:08.277Z,62.81
2024-02-29T02:38:08.079Z,62.81
2024-02-29T02:39:08.059Z,62.51
2024-02-29T02:40:08.304Z,62.30
2024-02-29T02:41:08.026Z,62.54
2024-02-29T02:42:08.091Z,62.61
2024-02-29T02:43:08.066Z,62.40
2024-02-29T02:44:07.976Z,62.19
2024-02-29T02:45:07.966Z,62.10
2024-02-29T02:46:08.021Z,62.10
2024-02-29T02:47:07.948Z,61.89
2024-02-29T02:48:08.015Z,61.79
2024-02-29T02:49:08.034Z,61.69
2024-02-29T02:50:07.970Z,61.55
2024-02-29T02:51:07.941Z,61.45
2024-02-29T02:52:07.887Z,61.45
2024-02-29T02:53:07.891Z,61.38
2024-02-29T02:54:07.869Z,61.58
2024-02-29T02:55:07.885Z,61.99
2024-02-29T02:56:07.820Z,61.89
2024-02-29T02:57:07.823Z,61.82
2024-02-29T02:58:07.841Z,62.02
2024-02-29T02:59:07.776Z,62.23
2024-02-29T03:00:07.813Z,62.43
2024-02-29T03:01:07.884Z,62.43
2024-02-29T03:02:07.797Z,62.54
2024-02-29T03:03:07.726Z,62.54
2024-02-29T03:04:07.753Z,62.40
2024-02-29T03:05:07.726Z,62.19
2024-02-29T03:06:07.790Z,62.19
2024-02-29T03:07:07.816Z,62.19
2024-02-29T03:08:07.656Z,61.99
2024-02-29T03:09:07.675Z,62.02
2024-02-29T03:10:07.704Z,62.23
2024-02-29T03:11:07.729Z,62.02
2024-02-29T03:12:07.621Z,62.56
2024-02-29T03:13:07.722Z,62.98
2024-02-29T03:14:07.572Z,62.95
2024-02-29T03:15:07.615Z,62.95
2024-02-29T03:16:07.606Z,62.63
2024-02-29T03:17:07.587Z,62.33
2024-02-29T03:18:07.577Z,62.43
2024-02-29T03:19:07.558Z,62.66
2024-02-29T03:20:07.513Z,62.98
2024-02-29T03:21:07.546Z,62.87
2024-02-29T03:22:07.638Z,62.87
2024-02-29T03:23:07.608Z,62.98
2024-02-29T03:24:07.462Z,63.18
2024-02-29T03:25:07.499Z,63.39
2024-02-29T03:26:07.447Z,63.49
2024-02-29T03:27:07.414Z,63.42
2024-02-29T03:28:07.519Z,63.51
2024-02-29T03:29:07.413Z,63.93
2024-02-29T03:30:07.415Z,63.93
2024-02-29T03:31:07.433Z,64.16
2024-02-29T03:32:07.342Z,64.78
2024-02-29T03:33:07.391Z,64.47
2024-02-29T03:34:07.346Z,64.26
2024-02-29T03:35:07.342Z,64.34
2024-02-29T03:36:07.306Z,64.13
2024-02-29T03:37:07.308Z,64.13
2024-02-29T03:38:07.325Z,64.03
2024-02-29T03:39:07.290Z,63.93
2024-02-29T03:40:07.269Z,63.93
2024-02-29T03:41:07.251Z,64.13
2024-02-29T03:42:07.246Z,63.82
2024-02-29T03:43:07.231Z,63.62
2024-02-29T03:44:07.196Z,63.28
2024-02-29T03:45:07.174Z,63.07
2024-02-29T03:46:07.233Z,62.66
2024-02-29T03:47:07.176Z,62.54
2024-02-29T03:48:07.193Z,62.43
2024-02-29T03:49:07.179Z,61.95
2024-02-29T03:50:07.127Z,62.56
2024-02-29T03:51:07.115Z,63.21
2024-02-29T03:52:07.154Z,63.65
2024-02-29T03:53:07.096Z,63.85
2024-02-29T03:54:07.061Z,64.26
2024-02-29T03:55:07.111Z,64.47
2024-02-29T03:56:07.059Z,65.01
2024-02-29T03:57:07.011Z,65.12
2024-02-29T03:58:07.026Z,65.22
2024-02-29T03:59:07.001Z,64.81
2024-02-29T04:00:06.971Z,65.01
2024-02-29T04:01:07.049Z,65.32
2024-02-29T04:02:07.006Z,65.09
2024-02-29T04:03:06.950Z,64.57
2024-02-29T04:04:07.014Z,64.16
2024-02-29T04:05:06.950Z,63.24
2024-02-29T04:06:06.895Z,63.98
2024-02-29T04:07:06.951Z,64.19
2024-02-29T04:08:06.915Z,64.91
2024-02-29T04:09:06.868Z,64.40
2024-02-29T04:10:06.930Z,64.60
2024-02-29T04:11:06.886Z,64.26
2024-02-29T04:12:06.810Z,63.82
2024-02-29T04:13:06.894Z,63.42
2024-02-29T04:14:06.831Z,63.10
2024-02-29T04:15:06.800Z,62.90
2024-02-29T04:16:06.820Z,62.80
2024-02-29T04:17:06.854Z,62.59
2024-02-29T04:18:06.777Z,62.46
2024-02-29T04:19:06.953Z,62.39
2024-02-29T04:20:06.748Z,62.56
2024-02-29T04:21:06.711Z,62.56
2024-02-29T04:22:06.797Z,62.46
2024-02-29T04:23:06.681Z,62.49
2024-02-29T04:24:06.749Z,62.56
2024-02-29T04:25:06.712Z,62.36
2024-02-29T04:26:06.642Z,62.26
2024-02-29T04:27:06.609Z,62.29
2024-02-29T04:28:06.736Z,62.39
2024-02-29T04:29:06.611Z,62.70
2024-02-29T04:30:06.630Z,62.93
2024-02-29T04:31:06.638Z,63.10
2024-02-29T04:32:06.570Z,63.13
2024-02-29T04:33:06.570Z,63.10
2024-02-29T04:34:06.541Z,63.00
2024-02-29T04:35:06.507Z,62.80
2024-02-29T04:36:06.506Z,62.62
2024-02-29T04:37:06.544Z,63.34
2024-02-29T04:38:06.483Z,63.44
2024-02-29T04:39:06.463Z,63.78
2024-02-29T04:40:09.744Z,63.89
2024-02-29T04:41:06.426Z,63.75
2024-02-29T04:42:06.425Z,63.65
2024-02-29T04:43:06.416Z,63.44
2024-02-29T04:44:06.430Z,63.34
2024-02-29T04:45:06.396Z,63.34
2024-02-29T04:46:06.424Z,63.00
2024-02-29T04:47:06.349Z,63.10
2024-02-29T04:48:06.385Z,63.00
2024-02-29T04:49:06.385Z,63.00
2024-02-29T04:50:06.341Z,62.70
2024-02-29T04:51:06.312Z,62.70
2024-02-29T04:52:06.354Z,62.80
2024-02-29T04:53:06.296Z,62.59
2024-02-29T04:54:06.279Z,62.59
2024-02-29T04:55:06.277Z,62.70
2024-02-29T04:56:06.264Z,62.59
2024-02-29T04:57:06.224Z,62.70
2024-02-29T04:58:06.304Z,62.59
2024-02-29T04:59:06.209Z,62.18
2024-02-29T05:00:06.185Z,62.39
2024-02-29T05:01:06.288Z,62.39
2024-02-29T05:02:07.652Z,62.59
2024-02-29T05:03:06.165Z,62.39
2024-02-29T05:04:06.192Z,62.29
2024-02-29T05:05:06.158Z,61.67
2024-02-29T05:06:06.111Z,62.21
2024-02-29T05:07:06.135Z,62.62
2024-02-29T05:08:06.104Z,62.96
2024-02-29T05:09:06.058Z,63.03
2024-02-29T05:10:06.129Z,62.93
2024-02-29T05:11:06.065Z,62.73
2024-02-29T05:12:06.006Z,62.73
2024-02-29T05:13:06.022Z,62.52
2024-02-29T05:14:06.051Z,62.62
2024-02-29T05:15:06.029Z,62.65
2024-02-29T05:16:06.023Z,62.75
2024-02-29T05:17:05.977Z,62.96
2024-02-29T05:18:06.138Z,63.06
2024-02-29T05:19:05.948Z,63.06
2024-02-29T05:20:05.920Z,63.06
2024-02-29T05:21:05.985Z,62.96
2024-02-29T05:22:05.948Z,63.17
2024-02-29T05:23:05.947Z,63.27
2024-02-29T05:24:05.866Z,63.29
2024-02-29T05:25:05.912Z,64.22
2024-02-29T05:26:05.832Z,64.43
2024-02-29T05:27:05.935Z,64.09
2024-02-29T05:28:05.836Z,63.68
2024-02-29T05:29:05.886Z,63.17
2024-02-29T05:30:05.785Z,63.47
2024-02-29T05:31:05.860Z,63.57
2024-02-29T05:32:05.761Z,63.57
2024-02-29T05:33:05.844Z,63.24
2024-02-29T05:34:05.787Z,63.27
2024-02-29T05:35:05.722Z,63.17
2024-02-29T05:36:05.734Z,63.13
2024-02-29T05:37:05.731Z,63.13
2024-02-29T05:38:05.705Z,63.03
2024-02-29T05:39:05.669Z,62.93
2024-02-29T05:40:05.671Z,63.03
2024-02-29T05:41:05.725Z,62.93
2024-02-29T05:42:05.631Z,62.83
2024-02-29T05:43:05.622Z,62.73
2024-02-29T05:44:05.599Z,62.52
2024-02-29T05:45:05.647Z,62.41
2024-02-29T05:46:05.717Z,62.21
2024-02-29T05:47:05.567Z,62.01
2024-02-29T05:48:05.614Z,62.11
2024-02-29T05:49:05.601Z,62.31
2024-02-29T05:50:05.527Z,62.21
2024-02-29T05:51:05.509Z,62.31
2024-02-29T05:52:05.565Z,62.41
2024-02-29T05:53:05.485Z,62.41
2024-02-29T05:54:05.550Z,62.41
2024-02-29T05:55:05.522Z,62.62
2024-02-29T05:56:05.481Z,62.52
2024-02-29T05:57:06.446Z,62.41
2024-02-29T05:58:05.475Z,62.62
2024-02-29T05:59:05.410Z,62.62
2024-02-29T06:00:05.425Z,62.31
2024-02-29T06:01:05.439Z,62.75
2024-02-29T06:02:05.471Z,62.55
2024-02-29T06:03:05.356Z,62.75
2024-02-29T06:04:05.398Z,62.96
2024-02-29T06:05:05.345Z,62.65
2024-02-29T06:06:05.314Z,62.75
2024-02-29T06:07:05.399Z,62.75
2024-02-29T06:08:05.272Z,62.88
2024-02-29T06:09:05.263Z,63.22
2024-02-29T06:10:05.339Z,63.94
2024-02-29T06:11:05.274Z,63.84
2024-02-29T06:12:05.251Z,64.04
2024-02-29T06:13:05.284Z,63.91
2024-02-29T06:14:05.212Z,63.81
2024-02-29T06:15:06.968Z,63.40
2024-02-29T06:16:05.243Z,63.71
2024-02-29T06:17:05.163Z,63.71
2024-02-29T06:18:05.197Z,63.47
2024-02-29T06:19:05.191Z,63.27
2024-02-29T06:20:05.152Z,63.17
2024-02-29T06:21:05.162Z,62.73
2024-02-29T06:22:05.208Z,62.62
2024-02-29T06:23:05.096Z,62.52
2024-02-29T06:24:05.117Z,62.29
2024-02-29T06:25:05.087Z,62.01
2024-02-29T06:26:05.048Z,62.11
2024-02-29T06:27:05.030Z,62.01
2024-02-29T06:28:05.072Z,62.29
2024-02-29T06:29:04.991Z,62.08
2024-02-29T06:30:04.991Z,62.21
2024-02-29T06:31:05.011Z,62.29
2024-02-29T06:32:05.083Z,62.08
2024-02-29T06:33:05.082Z,62.08
2024-02-29T06:34:05.050Z,62.08
2024-02-29T06:35:04.910Z,61.98
2024-02-29T06:36:07.365Z,61.87
2024-02-29T06:37:04.897Z,61.95
2024-02-29T06:38:04.879Z,61.74
2024-02-29T06:39:04.877Z,61.64
2024-02-29T06:40:04.929Z,61.74
2024-02-29T06:41:04.848Z,61.85
2024-02-29T06:42:04.854Z,61.64
2024-02-29T06:43:04.961Z,61.74
2024-02-29T06:44:04.806Z,61.33
2024-02-29T06:45:04.785Z,61.54
2024-02-29T06:46:04.886Z,61.54
2024-02-29T06:47:04.752Z,61.41
2024-02-29T06:48:04.757Z,61.10
2024-02-29T06:49:04.749Z,61.13
2024-02-29T06:50:04.744Z,61.13
2024-02-29T06:51:04.722Z,61.23
2024-02-29T06:52:04.793Z,61.33
2024-02-29T06:53:04.680Z,61.23
2024-02-29T06:54:04.667Z,61.02
2024-02-29T06:55:04.689Z,61.23
2024-02-29T06:56:04.677Z,61.23
2024-02-29T06:57:04.664Z,61.02
2024-02-29T06:58:04.748Z,61.54
2024-02-29T06:59:04.648Z,61.54
2024-02-29T07:00:04.591Z,61.41
2024-02-29T07:01:04.604Z,61.20
2024-02-29T07:02:04.598Z,61.10
2024-02-29T07:03:04.540Z,61.30
2024-02-29T07:04:04.636Z,61.30
2024-02-29T07:05:04.523Z,61.20
2024-02-29T07:06:04.536Z,61.00
2024-02-29T07:07:04.570Z,61.10
2024-02-29T07:08:04.560Z,61.00
2024-02-29T07:09:04.465Z,61.00
2024-02-29T07:10:04.560Z,60.89
2024-02-29T07:11:04.508Z,60.79
2024-02-29T07:12:04.445Z,60.76
2024-02-29T07:13:04.445Z,60.56
2024-02-29T07:14:04.435Z,60.82
2024-02-29T07:15:04.426Z,61.23
2024-02-29T07:16:04.534Z,61.00
2024-02-29T07:17:04.363Z,61.20
2024-02-29T07:18:04.383Z,60.69
2024-02-29T07:19:04.379Z,60.79
2024-02-29T07:20:04.343Z,61.10
2024-02-29T07:21:04.302Z,61.10
2024-02-29T07:22:04.386Z,61.10
2024-02-29T07:23:04.285Z,60.58
2024-02-29T07:24:04.248Z,60.82
2024-02-29T07:25:04.379Z,61.33
2024-02-29T07:26:04.243Z,61.36
2024-02-29T07:27:04.235Z,61.74
2024-02-29T07:28:04.367Z,61.44
2024-02-29T07:29:04.206Z,61.33
2024-02-29T07:30:04.218Z,61.33
2024-02-29T07:31:04.261Z,61.23
2024-02-29T07:32:04.257Z,60.92
2024-02-29T07:33:04.287Z,60.82
2024-02-29T07:34:04.191Z,60.72
2024-02-29T07:35:04.120Z,60.58
2024-02-29T07:36:04.233Z,60.49
2024-02-29T07:37:04.208Z,60.66
2024-02-29T07:38:04.092Z,60.25
2024-02-29T07:39:04.117Z,60.35
2024-02-29T07:40:04.127Z,60.05
2024-02-29T07:41:04.056Z,60.05
2024-02-29T07:42:04.091Z,60.15
2024-02-29T07:43:04.168Z,60.35
2024-02-29T07:44:04.041Z,60.25
2024-02-29T07:45:04.047Z,60.05
2024-02-29T07:46:04.109Z,59.94
2024-02-29T07:47:04.053Z,59.94
2024-02-29T07:48:04.055Z,59.84
2024-02-29T07:49:04.014Z,60.05
2024-02-29T07:50:03.923Z,59.87
2024-02-29T07:51:04.630Z,60.35
2024-02-29T07:52:03.960Z,60.58
2024-02-29T07:53:03.917Z,60.17
2024-02-29T07:54:03.865Z,60.15
2024-02-29T07:55:03.955Z,59.94
2024-02-29T07:56:03.835Z,60.05
2024-02-29T07:57:03.829Z,60.15
2024-02-29T07:58:03.892Z,59.92
2024-02-29T07:59:03.799Z,59.50
2024-02-29T08:00:03.806Z,59.94
2024-02-29T08:01:03.938Z,60.25
2024-02-29T08:02:03.828Z,60.25
2024-02-29T08:03:03.744Z,60.46
2024-02-29T08:04:03.831Z,60.49
2024-02-29T08:05:03.731Z,60.69
2024-02-29T08:06:03.739Z,60.86
2024-02-29T08:07:03.711Z,60.66
2024-02-29T08:08:03.697Z,60.42
2024-02-29T08:09:03.726Z,60.35
2024-02-29T08:10:03.752Z,60.66
2024-02-29T08:11:03.654Z,60.76
2024-02-29T08:12:03.748Z,60.63
2024-02-29T08:13:03.721Z,60.46
2024-02-29T08:14:03.602Z,61.10
2024-02-29T08:15:03.599Z,61.18
2024-02-29T08:16:03.635Z,60.76
2024-02-29T08:17:03.586Z,60.76
2024-02-29T08:18:03.595Z,60.74
2024-02-29T08:19:03.606Z,60.42
2024-02-29T08:20:03.519Z,60.42
2024-02-29T08:21:03.502Z,60.84
2024-02-29T08:22:03.589Z,60.74
2024-02-29T08:23:03.518Z,60.42
2024-02-29T08:24:03.466Z,60.50
2024-02-29T08:25:03.565Z,60.19
2024-02-29T08:26:03.466Z,59.96
2024-02-29T08:27:03.437Z,59.96
2024-02-29T08:28:03.528Z,59.45
2024-02-29T08:29:03.398Z,59.55
2024-02-29T08:30:03.561Z,59.63
2024-02-29T08:31:03.447Z,59.14
2024-02-29T08:32:03.406Z,59.45
2024-02-29T08:33:03.400Z,59.53
2024-02-29T08:34:03.400Z,59.22
2024-02-29T08:35:03.354Z,58.68
2024-02-29T08:36:03.319Z,58.91
2024-02-29T08:37:03.340Z,59.22
2024-02-29T08:38:03.291Z,59.01
2024-02-29T08:39:03.261Z,59.09
2024-02-29T08:40:03.348Z,59.32
2024-02-29T08:41:03.235Z,59.53
2024-02-29T08:42:03.236Z,59.42
2024-02-29T08:43:03.283Z,59.35
2024-02-29T08:44:03.211Z,59.83
2024-02-29T08:45:03.190Z,59.32
2024-02-29T08:46:03.220Z,59.32
2024-02-29T08:47:03.173Z,58.89
2024-02-29T08:48:03.188Z,59.30
2024-02-29T08:49:03.969Z,58.98
2024-02-29T08:50:03.118Z,58.98
2024-02-29T08:51:03.093Z,58.86
2024-02-29T08:52:03.139Z,58.89
2024-02-29T08:53:03.064Z,59.39
2024-02-29T08:54:03.076Z,59.39
2024-02-29T08:55:03.130Z,59.19
2024-02-29T08:56:03.078Z,59.16
2024-02-29T08:57:03.034Z,58.52
2024-02-29T08:58:03.090Z,58.52
2024-02-29T08:59:03.093Z,58.42
2024-02-29T09:00:02.985Z,58.22
2024-02-29T09:01:03.026Z,57.81
2024-02-29T09:02:03.112Z,57.91
2024-02-29T09:03:02.932Z,58.01
2024-02-29T09:04:03.105Z,57.96
2024-02-29T09:05:02.939Z,57.04
2024-02-29T09:06:02.961Z,57.24
2024-02-29T09:07:02.921Z,56.81
2024-02-29T09:08:02.912Z,56.81
2024-02-29T09:09:02.879Z,56.71
2024-02-29T09:10:02.961Z,56.81
2024-02-29T09:11:02.993Z,57.01
2024-02-29T09:12:02.870Z,56.91
2024-02-29T09:13:08.488Z,57.04
2024-02-29T09:14:03.837Z,57.01
2024-02-29T09:15:02.788Z,56.99
2024-02-29T09:16:02.853Z,56.07
2024-02-29T09:17:02.809Z,56.07
2024-02-29T09:18:02.883Z,56.50
2024-02-29T09:19:04.222Z,56.78
2024-02-29T09:20:02.750Z,56.50
2024-02-29T09:21:02.711Z,56.91
2024-02-29T09:22:02.751Z,56.99
2024-02-29T09:23:02.707Z,56.45
2024-02-29T09:24:02.692Z,56.04
2024-02-29T09:25:02.764Z,56.24
2024-02-29T09:26:02.645Z,56.24
2024-02-29T09:27:02.638Z,56.48
2024-02-29T09:28:02.676Z,56.78
2024-02-29T09:29:02.607Z,56.78
2024-02-29T09:30:02.628Z,56.78
2024-02-29T09:31:02.651Z,57.09
2024-02-29T09:32:02.581Z,56.99
2024-02-29T09:33:02.624Z,56.65
2024-02-29T09:34:02.553Z,56.55
2024-02-29T09:35:02.511Z,56.22
2024-02-29T09:36:02.518Z,56.42
2024-02-29T09:37:02.570Z,55.91
2024-02-29T09:38:02.590Z,56.22
2024-02-29T09:39:02.496Z,55.51
2024-02-29T09:40:05.164Z,56.02
2024-02-29T09:41:12.649Z,55.71
2024-02-29T09:43:02.463Z,55.38
2024-02-29T09:44:02.369Z,55.89
2024-02-29T09:45:02.370Z,55.38
2024-02-29T09:46:02.379Z,55.25
2024-02-29T09:47:02.363Z,55.02
2024-02-29T09:48:02.441Z,54.41
2024-02-29T09:49:02.357Z,54.82
2024-02-29T09:50:05.477Z,54.41
2024-02-29T09:51:02.287Z,54.59
2024-02-29T09:52:02.322Z,54.41
2024-02-29T09:53:02.322Z,54.51
2024-02-29T09:54:02.272Z,54.39
2024-02-29T09:55:02.349Z,54.08
2024-02-29T09:56:02.252Z,53.88
2024-02-29T09:57:02.348Z,54.51
2024-02-29T09:58:02.253Z,54.59
2024-02-29T09:59:02.193Z,54.49
2024-02-29T10:00:02.213Z,54.39
2024-02-29T10:01:02.267Z,54.18
2024-02-29T10:02:02.333Z,54.28
2024-02-29T10:03:02.165Z,54.28
2024-02-29T10:04:02.200Z,54.26
2024-02-29T10:05:02.154Z,54.16
2024-02-29T10:06:02.136Z,54.05
2024-02-29T10:07:02.382Z,54.16
2024-02-29T10:08:04.148Z,53.72
2024-02-29T10:09:02.093Z,53.22
2024-02-29T10:10:02.082Z,53.52
2024-02-29T10:11:02.081Z,53.42
2024-02-29T10:12:02.039Z,53.63
2024-02-29T10:13:02.138Z,53.63
2024-02-29T10:14:02.046Z,53.96
2024-02-29T10:15:02.010Z,53.93
2024-02-29T10:16:01.985Z,54.05
2024-02-29T10:17:01.990Z,54.05
2024-02-29T10:18:02.177Z,53.96
2024-02-29T10:19:02.021Z,54.46
2024-02-29T10:20:01.910Z,54.69
2024-02-29T10:21:01.899Z,54.57
2024-02-29T10:22:01.918Z,54.49
2024-02-29T10:23:01.891Z,55.10
2024-02-29T10:24:01.859Z,55.20
2024-02-29T10:25:01.863Z,54.87
2024-02-29T10:26:01.805Z,54.77
2024-02-29T10:27:01.908Z,54.24
2024-02-29T10:28:01.906Z,54.21
2024-02-29T10:29:01.783Z,53.47
2024-02-29T10:30:01.801Z,53.27
2024-02-29T10:31:01.826Z,53.17
2024-02-29T10:32:01.802Z,53.17
2024-02-29T10:33:01.761Z,53.14
2024-02-29T10:34:01.792Z,52.71
2024-02-29T10:35:01.709Z,52.31
2024-02-29T10:36:01.792Z,52.20
2024-02-29T10:37:01.754Z,52.11
2024-02-29T10:38:01.663Z,52.20
2024-02-29T10:39:01.651Z,51.75
2024-02-29T10:40:03.455Z,51.55
2024-02-29T10:41:01.682Z,51.12
2024-02-29T10:42:01.643Z,51.12
2024-02-29T10:43:01.679Z,51.25
2024-02-29T10:44:01.594Z,51.45
2024-02-29T10:45:01.614Z,51.65
2024-02-29T10:46:01.621Z,51.35
2024-02-29T10:47:01.540Z,51.45
2024-02-29T10:48:01.645Z,51.65
2024-02-29T10:49:01.567Z,51.55
2024-02-29T10:50:01.523Z,51.55
2024-02-29T10:51:01.478Z,51.65
2024-02-29T10:52:01.581Z,51.65
2024-02-29T10:53:01.470Z,51.45
2024-02-29T10:54:01.475Z,51.55
2024-02-29T10:55:01.466Z,51.86
2024-02-29T10:56:01.431Z,51.86
2024-02-29T10:57:01.407Z,51.22
2024-02-29T10:58:01.413Z,51.12
2024-02-29T10:59:01.388Z,51.02
2024-02-29T11:00:01.430Z,51.32
2024-02-29T11:01:01.507Z,51.32
2024-02-29T11:02:01.465Z,51.45
2024-02-29T11:03:01.326Z,51.22
2024-02-29T11:04:01.385Z,51.22
2024-02-29T11:05:01.295Z,51.45
2024-02-29T11:06:01.311Z,51.53
2024-02-29T11:07:01.312Z,51.42
2024-02-29T11:08:01.244Z,51.12
2024-02-29T11:09:01.266Z,51.02
2024-02-29T11:10:01.268Z,51.22
2024-02-29T11:11:01.236Z,51.32
2024-02-29T11:12:01.259Z,51.20
2024-02-29T11:13:01.224Z,50.89
2024-02-29T11:14:01.221Z,50.89
2024-02-29T11:15:01.164Z,51.62
2024-02-29T11:16:01.227Z,51.62
2024-02-29T11:17:01.119Z,52.06
2024-02-29T11:18:01.265Z,51.86
2024-02-29T11:19:01.204Z,52.64
2024-02-29T11:20:01.143Z,51.81
2024-02-29T11:21:01.145Z,51.05
2024-02-29T11:22:01.129Z,50.34
2024-02-29T11:23:06.488Z,50.34
2024-02-29T11:24:02.026Z,50.79
2024-02-29T11:25:01.338Z,51.42
2024-02-29T11:26:01.122Z,51.86
2024-02-29T11:27:01.000Z,52.06
2024-02-29T11:28:01.044Z,52.13
2024-02-29T11:29:00.981Z,51.30
2024-02-29T11:30:00.957Z,50.64
2024-02-29T11:31:00.968Z,50.44
2024-02-29T11:32:01.290Z,50.64
2024-02-29T11:33:00.934Z,50.44
2024-02-29T11:34:00.921Z,50.74
2024-02-29T11:35:00.909Z,50.67
2024-02-29T11:36:00.869Z,50.24
2024-02-29T11:37:00.959Z,49.61
2024-02-29T11:38:00.867Z,49.38
2024-02-29T11:39:00.888Z,49.18
2024-02-29T11:40:00.963Z,48.78
2024-02-29T11:41:00.848Z,48.96
2024-02-29T11:42:00.811Z,48.75
2024-02-29T11:43:00.940Z,48.65
2024-02-29T11:44:00.770Z,48.45
2024-02-29T11:45:00.855Z,49.10
2024-02-29T11:46:00.950Z,49.71
2024-02-29T11:47:00.751Z,49.91
2024-02-29T11:48:00.761Z,49.16
2024-02-29T11:49:00.805Z,48.75
2024-02-29T11:50:00.842Z,48.75
2024-02-29T11:51:00.666Z,48.96
2024-02-29T11:52:00.786Z,48.33
2024-02-29T11:53:00.703Z,47.90
2024-02-29T11:54:00.653Z,47.70
2024-02-29T11:55:00.683Z,47.40
2024-02-29T11:56:07.229Z,47.70
2024-02-29T11:57:01.728Z,48.02
2024-02-29T11:58:00.605Z,48.13
2024-02-29T11:59:00.595Z,47.92
2024-02-29T12:00:00.600Z,48.00
2024-02-29T12:01:00.602Z,47.47
2024-02-29T12:02:00.591Z,47.15
2024-02-29T12:03:00.596Z,47.07
2024-02-29T12:04:00.619Z,47.27
2024-02-29T12:05:00.611Z,47.05
2024-02-29T12:06:00.453Z,47.27
2024-02-29T12:07:00.532Z,47.09
2024-02-29T12:08:00.433Z,47.07
2024-02-29T12:09:00.510Z,47.17
2024-02-29T12:10:00.456Z,47.38
2024-02-29T12:11:00.422Z,46.97
2024-02-29T12:12:00.411Z,46.75
2024-02-29T12:13:00.522Z,46.87
2024-02-29T12:14:00.355Z,47.82
2024-02-29T12:15:00.406Z,48.22
2024-02-29T12:16:00.372Z,47.92
2024-02-29T12:17:00.361Z,48.13
2024-02-29T12:18:00.397Z,48.33
2024-02-29T12:19:00.330Z,48.63
2024-02-29T12:20:00.253Z,47.88
2024-02-29T12:21:00.315Z,46.83
2024-02-29T12:22:00.337Z,46.30
2024-02-29T12:23:00.232Z,45.78
2024-02-29T12:24:00.217Z,46.10
2024-02-29T12:25:00.397Z,45.92
2024-02-29T12:26:00.221Z,46.33
2024-02-29T12:27:00.342Z,46.22
2024-02-29T12:28:00.180Z,46.22
2024-02-29T12:29:00.192Z,46.34
2024-02-29T12:30:00.196Z,46.65
2024-02-29T12:31:00.199Z,46.53
2024-02-29T12:32:00.113Z,46.45
2024-02-29T12:33:00.165Z,46.65
2024-02-29T12:34:00.235Z,46.85
2024-02-29T12:35:00.088Z,46.75
2024-02-29T12:36:00.222Z,46.75
2024-02-29T12:37:00.197Z,46.45
2024-02-29T12:38:00.058Z,46.33
2024-02-29T12:39:00.054Z,46.10
2024-02-29T12:40:00.041Z,45.29
2024-02-29T12:40:59.984Z,45.62
2024-02-29T12:41:59.954Z,46.53
2024-02-29T12:43:00.007Z,46.73
2024-02-29T12:43:59.942Z,46.55
2024-02-29T12:44:59.964Z,46.55
2024-02-29T12:45:59.963Z,46.95
2024-02-29T12:46:59.900Z,46.53
2024-02-29T12:47:59.989Z,46.55
2024-02-29T12:48:59.956Z,46.85
2024-02-29T12:49:59.937Z,46.42
2024-02-29T12:50:59.921Z,46.55
2024-02-29T12:51:59.920Z,46.33
2024-02-29T12:52:59.831Z,46.33